Time;durP1;ratioP1;P1;durP2;ratioP2;P2;SDS_P1;SDS_P2;PMS_P1;PMS_P2;Temp;Humidity;BMP_temperature;BMP_pressure;BME280_temperature;BME280_humidity;BME280_pressure;Samples;Min_cycle;Max_cycle;Signal;HPM_P1;HPM_P2
2023/04/25 00:02:00;;;;;;;;;;;;;;;11.32;74.64;96331.46;110151;1244;58884;-71
2023/04/25 00:04:33;;;;;;;8.20;7.40;;;;;;;11.29;77.17;96332.43;110157;1243;70985;-72
2023/04/25 00:07:04;;;;;;;9.00;7.70;;;;;;;11.26;75.45;96330.98;110148;1244;68550;-72
2023/04/25 00:09:35;;;;;;;9.80;7.80;;;;;;;11.22;74.49;96331.58;110139;1243;69330;-72
2023/04/25 00:12:05;;;;;;;9.20;7.00;;;;;;;11.19;74.23;96330.80;109809;1245;58943;-72
2023/04/25 00:14:33;;;;;;;8.10;7.30;;;;;;;11.16;77.15;96332.52;110149;1244;58918;-72
2023/04/25 00:17:05;;;;;;;8.40;7.60;;;;;;;11.14;78.28;96328.86;110182;1243;69645;-72
2023/04/25 00:19:34;;;;;;;9.00;7.90;;;;;;;11.13;77.33;96321.29;110145;1245;69211;-72
2023/04/25 00:22:05;;;;;;;8.80;7.80;;;;;;;11.11;77.82;96319.17;110145;1241;67553;-71
2023/04/25 00:24:36;;;;;;;8.50;7.30;;;;;;;11.10;78.32;96316.39;110113;1241;58939;-74
2023/04/25 00:27:06;;;;;;;8.80;7.90;;;;;;;11.08;78.68;96313.03;110214;1241;58941;-73
2023/04/25 00:29:37;;;;;;;8.70;7.80;;;;;;;11.06;79.21;96312.04;110155;1244;70444;-73
2023/04/25 00:32:06;;;;;;;9.60;8.40;;;;;;;11.02;79.80;96309.25;110282;1244;69227;-73
2023/04/25 00:34:35;;;;;;;9.80;8.30;;;;;;;10.97;79.93;96306.20;110161;1244;69131;-73
2023/04/25 00:37:06;;;;;;;9.50;8.30;;;;;;;10.93;78.83;96305.02;110125;1245;58903;-72
2023/04/25 00:39:38;;;;;;;8.40;7.60;;;;;;;10.90;78.61;96302.89;110181;1245;58879;-72
2023/04/25 00:42:09;;;;;;;9.10;8.00;;;;;;;10.87;79.85;96301.23;110159;1244;70016;-72
2023/04/25 00:44:43;;;;;;;9.60;8.40;;;;;;;10.87;80.31;96299.52;110146;1245;69284;-73
2023/04/25 00:47:15;;;;;;;8.80;7.90;;;;;;;10.87;79.87;96297.37;110107;1244;69322;-72
2023/04/25 00:49:47;;;;;;;8.50;7.60;;;;;;;10.87;80.60;96299.14;110122;1245;58892;-72
2023/04/25 00:52:17;;;;;;;9.10;8.20;;;;;;;10.87;81.97;96298.96;110158;1244;58927;-73
2023/04/25 00:54:48;;;;;;;11.70;8.10;;;;;;;10.86;83.24;96297.44;110141;1242;70604;-73
2023/04/25 00:57:19;;;;;;;9.10;8.20;;;;;;;10.86;82.74;96288.59;110144;1244;69519;-74
2023/04/25 00:59:53;;;;;;;10.50;8.10;;;;;;;10.84;82.18;96285.77;110290;1245;68224;-73
2023/04/25 01:02:25;;;;;;;9.40;8.50;;;;;;;10.83;81.84;96287.09;110133;1242;58894;-72
2023/04/25 01:04:56;;;;;;;10.00;9.00;;;;;;;10.82;81.79;96286.32;109867;1245;58855;-73
2023/04/25 01:07:30;;;;;;;9.60;8.50;;;;;;;10.82;82.06;96287.60;109792;1245;70410;-73
2023/04/25 01:10:02;;;;;;;10.20;8.00;;;;;;;10.78;81.90;96288.29;110135;1243;69243;-73
2023/04/25 01:12:34;;;;;;;9.40;8.40;;;;;;;10.77;80.62;96285.08;110169;1241;69788;-73
2023/04/25 01:15:06;;;;;;;9.30;8.30;;;;;;;10.76;81.30;96284.14;110149;1241;58857;-73
2023/04/25 01:17:39;;;;;;;8.40;7.50;;;;;;;10.75;80.56;96282.80;110147;1241;59285;-73
2023/04/25 01:20:12;;;;;;;9.90;8.50;;;;;;;10.74;81.79;96282.03;110144;1242;69625;-73
2023/04/25 01:22:43;;;;;;;9.50;8.60;;;;;;;10.74;82.22;96281.67;110146;1246;69159;-73
2023/04/25 01:25:14;;;;;;;9.30;8.40;;;;;;;10.74;83.09;96278.89;110168;1244;67382;-73
2023/04/25 01:27:47;;;;;;;9.90;8.90;;;;;;;10.75;82.47;96276.59;110274;1242;58974;-72
2023/04/25 01:30:28;;;;;;;8.80;7.90;;;;;;;10.72;83.10;96276.23;110312;1244;58931;-74
2023/04/25 01:33:02;;;;;;;10.00;8.60;;;;;;;10.72;83.43;96275.75;110206;1241;70426;-74
2023/04/25 01:35:34;;;;;;;8.90;7.90;;;;;;;10.71;83.12;96275.29;110181;1244;68391;-74
2023/04/25 01:38:08;;;;;;;9.50;8.50;;;;;;;10.71;83.03;96274.73;110134;1244;68435;-74
2023/04/25 01:40:41;;;;;;;9.80;8.20;;;;;;;10.69;82.11;96270.73;110127;1245;59383;-74
2023/04/25 01:43:14;;;;;;;10.90;8.80;;;;;;;10.67;83.90;96271.48;110156;1243;58842;-74
2023/04/25 01:45:45;;;;;;;9.40;8.50;;;;;;;10.65;83.60;96271.48;110292;1241;69639;-74
2023/04/25 01:48:18;;;;;;;9.30;8.30;;;;;;;10.64;83.60;96271.23;110142;1243;68229;-74
2023/04/25 01:50:53;;;;;;;10.10;9.10;;;;;;;10.64;83.11;96268.59;110291;1244;68513;-74
2023/04/25 01:53:25;;;;;;;9.00;8.20;;;;;;;10.64;83.55;96270.73;110131;1241;58922;-74
2023/04/25 01:55:56;;;;;;;9.50;8.60;;;;;;;10.63;83.13;96265.38;109794;1246;58880;-72
2023/04/25 01:58:30;;;;;;;11.70;8.80;;;;;;;10.61;82.98;96265.07;110106;1244;69810;-74
2023/04/25 02:01:07;;;;;;;11.80;8.60;;;;;;;10.59;82.13;96262.11;110152;1241;69170;-73
2023/04/25 02:03:45;;;;;;;9.70;8.70;;;;;;;10.57;81.52;96257.55;109900;1243;67755;-73
2023/04/25 02:06:27;;;;;;;10.70;9.00;;;;;;;10.55;80.88;96257.27;110118;1244;58893;-73
2023/04/25 02:08:58;;;;;;;10.50;9.40;;;;;;;10.54;80.82;96257.52;109864;1245;58924;-73
2023/04/25 02:11:29;;;;;;;10.60;8.60;;;;;;;10.54;80.88;96256.09;110148;1244;70365;-73
2023/04/25 02:14:20;;;;;;;9.10;7.70;;;;;;;10.54;81.64;96253.86;110147;1246;69596;-73
2023/04/25 02:17:08;;;;;;;10.20;9.10;;;;;;;10.55;82.45;96256.20;110125;1245;69635;-73
2023/04/25 02:19:44;;;;;;;11.80;10.50;;;;;;;10.55;84.24;96259.66;110133;1243;58844;-72
2023/04/25 02:22:16;;;;;;;10.40;9.20;;;;;;;10.52;85.51;96261.56;110164;1242;58912;-73
2023/04/25 02:24:48;;;;;;;12.40;11.10;;;;;;;10.47;86.35;96259.06;109945;1245;69838;-73
2023/04/25 02:27:21;;;;;;;11.40;10.00;;;;;;;10.40;84.72;96260.02;109825;1246;69580;-74
2023/04/25 02:29:54;;;;;;;10.10;9.00;;;;;;;10.33;85.96;96256.84;109831;1246;69414;-73
2023/04/25 02:32:24;;;;;;;10.50;9.20;;;;;;;10.29;87.60;96256.00;109921;1241;58874;-73
2023/04/25 02:34:58;;;;;;;9.80;8.80;;;;;;;10.25;89.38;96252.68;110139;1244;58878;-74
2023/04/25 02:37:28;;;;;;;12.50;10.00;;;;;;;10.23;89.81;96257.51;110150;1245;70416;-74
2023/04/25 02:40:01;;;;;;;11.90;8.70;;;;;;;10.21;91.43;96253.31;110178;1244;68494;-74
2023/04/25 02:42:34;;;;;;;11.90;10.70;;;;;;;10.18;93.99;96250.42;109866;1247;68580;-75
2023/04/25 02:45:06;;;;;;;12.10;10.80;;;;;;;10.14;93.57;96250.13;110109;1245;58934;-75
2023/04/25 02:47:36;;;;;;;11.80;10.50;;;;;;;10.10;96.53;96246.27;110174;1244;58875;-75
2023/04/25 02:50:08;;;;;;;12.60;10.00;;;;;;;10.04;98.44;96243.73;110125;1241;70588;-75
2023/04/25 02:52:38;;;;;;;10.20;9.20;;;;;;;9.97;96.55;96241.22;110171;1251;69080;-74
2023/04/25 02:55:16;;;;;;;12.30;11.00;;;;;;;9.90;98.54;96243.04;110116;1244;69103;-74
2023/04/25 02:57:47;;;;;;;13.20;10.90;;;;;;;9.84;98.44;96243.59;109828;1241;58969;-75
2023/04/25 03:00:27;;;;;;;12.20;10.30;;;;;;;9.78;98.29;96243.91;110093;1244;58851;-74
2023/04/25 03:02:58;;;;;;;11.80;10.40;;;;;;;9.76;98.18;96242.95;109932;1245;69892;-74
2023/04/25 03:05:30;;;;;;;10.20;9.00;;;;;;;9.76;97.70;96243.08;110179;1244;69051;-74
2023/04/25 03:08:01;;;;;;;11.50;9.70;;;;;;;9.76;97.78;96242.54;110135;1241;67360;-74
2023/04/25 03:10:33;;;;;;;13.70;10.60;;;;;;;9.77;99.39;96240.23;110133;1243;58953;-74
2023/04/25 03:13:06;;;;;;;13.10;11.10;;;;;;;9.75;100.00;96240.68;110125;1245;58869;-73
2023/04/25 03:15:38;;;;;;;14.70;11.60;;;;;;;9.75;100.00;96233.56;109821;1246;69786;-74
2023/04/25 03:18:08;;;;;;;11.20;9.60;;;;;;;9.74;97.30;96235.77;109849;1247;69102;-74
2023/04/25 03:20:40;;;;;;;13.00;9.90;;;;;;;9.75;98.91;96233.78;110112;1244;69335;-74
2023/04/25 03:23:10;;;;;;;15.10;11.80;;;;;;;9.74;100.00;96233.48;110174;1241;58862;-74
2023/04/25 03:25:41;;;;;;;14.20;11.90;;;;;;;9.74;100.00;96229.11;110198;1244;59014;-74
2023/04/25 03:28:12;;;;;;;15.50;12.40;;;;;;;9.73;100.00;96226.95;110134;1243;70112;-73
2023/04/25 03:30:42;;;;;;;14.70;12.40;;;;;;;9.72;100.00;96227.80;109838;1245;69519;-74
2023/04/25 03:33:12;;;;;;;15.30;11.50;;;;;;;9.69;100.00;96230.27;110062;1244;68516;-73
2023/04/25 03:35:42;;;;;;;14.10;11.50;;;;;;;9.67;100.00;96231.50;110091;1241;58983;-74
2023/04/25 03:38:13;;;;;;;15.80;13.00;;;;;;;9.64;100.00;96231.77;109891;1245;58926;-74
2023/04/25 03:40:42;;;;;;;16.70;13.40;;;;;;;9.62;100.00;96228.95;109839;1245;70547;-75
2023/04/25 03:43:26;;;;;;;11.40;10.20;;;;;;;9.56;100.00;96231.56;110292;1246;69260;-74
2023/04/25 03:46:00;;;;;;;15.20;13.30;;;;;;;9.54;100.00;96228.83;110223;1244;69255;-74
2023/04/25 03:48:31;;;;;;;13.40;11.80;;;;;;;9.51;100.00;96226.82;110256;1241;58908;-74
2023/04/25 03:51:00;;;;;;;13.10;10.90;;;;;;;9.48;100.00;96230.25;110164;1242;58883;-74
2023/04/25 03:53:31;;;;;;;15.60;13.70;;;;;;;9.49;100.00;96236.77;110160;1245;70584;-74
2023/04/25 03:56:19;;;;;;;18.40;14.10;;;;;;;9.47;100.00;96230.13;109947;1245;70190;-74
2023/04/25 03:58:55;;;;;;;15.50;12.50;;;;;;;9.46;100.00;96234.54;110133;1241;69290;-74
2023/04/25 04:01:25;;;;;;;;;;;;;;;9.48;100.00;96230.36;110153;1245;58902;-74
2023/04/25 04:03:56;;;;;;;17.00;13.50;;;;;;;9.50;100.00;96227.59;110171;1241;59245;-74
2023/04/25 04:06:30;;;;;;;14.40;12.80;;;;;;;9.53;100.00;96225.60;109932;1245;69724;-73
2023/04/25 04:09:10;;;;;;;15.00;12.20;;;;;;;9.55;100.00;96223.52;110157;1243;68149;-73
2023/04/25 04:11:43;;;;;;;16.00;13.80;;;;;;;9.57;100.00;96223.30;110102;1243;69881;-73
2023/04/25 04:14:14;;;;;;;14.20;12.00;;;;;;;9.59;100.00;96222.30;110152;1243;59023;-73
2023/04/25 04:16:46;;;;;;;13.80;12.10;;;;;;;9.58;100.00;96216.92;110099;1244;58887;-73
2023/04/25 04:19:15;;;;;;;14.90;12.10;;;;;;;9.59;100.00;96216.19;110123;1243;71169;-73
2023/04/25 04:21:51;;;;;;;14.90;12.70;;;;;;;9.60;100.00;96213.46;110134;1241;69589;-73
2023/04/25 04:24:22;;;;;;;14.70;12.50;;;;;;;9.62;100.00;96214.88;110090;1244;69246;-73
2023/04/25 04:26:58;;;;;;;13.80;11.90;;;;;;;9.64;100.00;96217.45;110132;1241;58966;-73
2023/04/25 04:29:37;;;;;;;13.50;11.50;;;;;;;9.66;100.00;96213.81;110125;1241;58934;-73
2023/04/25 04:32:25;;;;;;;14.30;12.90;;;;;;;9.69;100.00;96215.59;110138;1244;70706;-74
2023/04/25 04:34:55;;;;;;;16.80;12.60;;;;;;;9.71;100.00;96215.84;109811;1241;67775;-73
2023/04/25 04:37:26;;;;;;;15.20;13.30;;;;;;;9.73;100.00;96214.34;110058;1244;68531;-73
2023/04/25 04:39:59;;;;;;;20.10;16.60;;;;;;;9.74;100.00;96211.39;110129;1244;58876;-73
2023/04/25 04:42:43;;;;;;;18.80;16.50;;;;;;;9.75;100.00;96210.98;110138;1243;58906;-73
2023/04/25 04:45:40;;;;;;;19.80;14.80;;;;;;;9.76;100.00;96212.79;110054;1244;70137;-73
2023/04/25 04:48:21;;;;;;;13.90;12.20;;;;;;;9.78;100.00;96211.20;110115;1242;68582;-73
2023/04/25 04:51:23;;;;;;;14.40;11.60;;;;;;;9.79;100.00;96213.02;109829;1244;68659;-73
2023/04/25 04:53:58;;;;;;;17.50;15.00;;;;;;;9.80;100.00;96210.34;110048;1244;58864;-73
2023/04/25 04:56:47;;;;;;;16.40;14.00;;;;;;;9.83;100.00;96210.42;110103;1245;58877;-73
2023/04/25 04:59:28;;;;;;;17.00;14.60;;;;;;;9.85;100.00;96207.48;110103;1241;69113;-73
2023/04/25 05:02:32;;;;;;;17.80;14.60;;;;;;;9.86;100.00;96208.63;109548;1248;70138;-73
2023/04/25 05:05:22;;;;;;;17.00;15.00;;;;;;;9.86;100.00;96208.04;109764;1241;69277;-73
2023/04/25 05:08:28;;;;;;;18.00;14.20;;;;;;;9.88;100.00;96201.64;109973;1246;58877;-73
2023/04/25 05:11:15;;;;;;;14.40;12.60;;;;;;;9.91;100.00;96202.93;110118;1245;58830;-73
2023/04/25 05:14:07;;;;;;;14.90;13.20;;;;;;;9.97;100.00;96202.77;110006;1241;71486;-73
2023/04/25 05:16:45;;;;;;;18.30;14.30;;;;;;;10.03;100.00;96202.77;110088;1243;70049;-73
2023/04/25 05:19:37;;;;;;;17.80;15.20;;;;;;;10.06;100.00;96207.30;109973;1244;69764;-73
2023/04/25 05:22:45;;;;;;;17.50;15.60;;;;;;;10.11;100.00;96204.91;109625;1248;58904;-73
2023/04/25 05:25:21;;;;;;;20.90;16.70;;;;;;;10.15;100.00;96202.88;109669;1248;59010;-73
2023/04/25 05:28:12;;;;;;;18.90;15.70;;;;;;;10.17;100.00;96200.59;109929;1248;70571;-74
2023/04/25 05:30:50;;;;;;;19.10;15.90;;;;;;;10.22;100.00;96203.31;110235;1244;69422;-72
2023/04/25 05:33:29;;;;;;;16.60;14.60;;;;;;;10.29;100.00;96206.01;110127;1245;68666;-72
2023/04/25 05:35:58;;;;;;;16.60;14.50;;;;;;;10.36;100.00;96206.05;109874;1245;58953;-73
2023/04/25 05:38:28;;;;;;;18.20;15.30;;;;;;;10.43;100.00;96202.58;110161;1241;58867;-75
2023/04/25 05:41:07;;;;;;;15.70;14.00;;;;;;;10.52;100.00;96203.52;110107;1244;70463;-73
2023/04/25 05:43:54;;;;;;;16.60;13.90;;;;;;;10.63;100.00;96205.26;110148;1241;70016;-71
2023/04/25 05:46:49;;;;;;;17.00;14.20;;;;;;;10.72;100.00;96201.37;110099;1244;69339;-73
2023/04/25 05:49:31;;;;;;;15.70;14.00;;;;;;;10.81;100.00;96200.88;109846;1245;58953;-73
2023/04/25 05:52:36;;;;;;;14.10;11.80;;;;;;;10.93;100.00;96199.17;109493;1250;58904;-75
2023/04/25 05:55:25;;;;;;;15.90;13.00;;;;;;;11.05;100.00;96194.92;110648;1243;70967;-73
2023/04/25 05:57:54;;;;;;;18.40;15.00;;;;;;;11.16;99.77;96194.05;110586;1244;69074;-73
2023/04/25 06:00:24;;;;;;;15.90;14.00;;;;;;;11.25;99.47;96196.19;110213;1243;69362;-75
2023/04/25 06:02:53;;;;;;;14.40;12.20;;;;;;;11.33;98.98;96194.21;110161;1241;58920;-74
2023/04/25 06:05:22;;;;;;;19.40;15.90;;;;;;;11.38;95.00;96192.70;110181;1244;58922;-75
2023/04/25 06:07:52;;;;;;;14.70;12.30;;;;;;;11.49;96.00;96196.20;110186;1244;69830;-74
2023/04/25 06:10:22;;;;;;;13.50;11.20;;;;;;;11.62;95.39;96193.01;110210;1241;69194;-74
2023/04/25 06:12:51;;;;;;;;;;;;;;;11.77;94.64;96193.19;109825;1245;68886;-74
2023/04/25 06:15:21;;;;;;;13.20;11.10;;;;;;;11.88;93.71;96193.70;110158;1241;58931;-74
2023/04/25 06:17:56;;;;;;;13.70;11.00;;;;;;;11.99;92.66;96188.45;110302;1244;58947;-74
2023/04/25 06:20:25;;;;;;;11.70;10.10;;;;;;;12.07;91.77;96191.11;110261;1243;70672;-74
2023/04/25 06:22:57;;;;;;;12.10;10.80;;;;;;;12.16;91.61;96190.38;110300;1241;69630;-74
2023/04/25 06:25:38;;;;;;;13.80;11.50;;;;;;;12.27;91.30;96190.20;110175;1241;69863;-74
2023/04/25 06:28:07;;;;;;;14.50;13.00;;;;;;;12.33;90.48;96188.19;110311;1242;58931;-74
2023/04/25 06:30:36;;;;;;;13.40;12.10;;;;;;;12.35;91.21;96188.40;110327;1244;58948;-74
2023/04/25 06:33:08;;;;;;;13.20;11.80;;;;;;;12.36;91.97;96189.88;110328;1244;69810;-73
2023/04/25 06:35:38;;;;;;;16.00;14.30;;;;;;;12.48;91.48;96189.68;109977;1245;68440;-74
2023/04/25 06:38:08;;;;;;;13.40;12.00;;;;;;;12.60;90.66;96184.62;109772;1246;501461;-73
2023/04/25 06:40:41;;;;;;;14.80;13.30;;;;;;;12.68;89.50;96186.22;109997;1244;58939;-72
2023/04/25 06:43:10;;;;;;;12.40;11.10;;;;;;;12.94;89.51;96184.13;109966;1244;58888;-72
2023/04/25 06:45:58;;;;;;;11.60;10.40;;;;;;;13.38;89.37;96185.11;109975;1244;71242;-72
2023/04/25 06:48:28;;;;;;;10.40;9.40;;;;;;;13.75;85.70;96183.20;110117;1244;69205;-72
2023/04/25 06:50:59;;;;;;;10.50;9.40;;;;;;;14.10;84.46;96182.66;110039;1245;68531;-74
2023/04/25 06:53:28;;;;;;;11.30;9.00;;;;;;;14.38;82.67;96181.19;109984;1244;58879;-73
2023/04/25 06:56:01;;;;;;;11.10;8.70;;;;;;;14.65;74.19;96180.80;109836;1245;58911;-73
2023/04/25 06:59:00;;;;;;;9.00;8.10;;;;;;;15.17;75.98;96173.98;109962;1244;71153;-73
2023/04/25 07:01:38;;;;;;;8.90;7.90;;;;;;;15.75;72.02;96174.17;109942;1244;69855;-72
2023/04/25 07:04:11;;;;;;;9.80;8.10;;;;;;;16.12;71.14;96174.13;109884;1245;68800;-75
2023/04/25 07:06:47;;;;;;;8.70;7.30;;;;;;;16.37;69.94;96175.48;109926;1244;58918;-73
2023/04/25 07:09:18;;;;;;;9.40;8.00;;;;;;;16.43;68.53;96172.91;109762;1246;58880;-72
2023/04/25 07:11:48;;;;;;;9.30;8.30;;;;;;;16.34;66.46;96171.98;109912;1244;70586;-72
2023/04/25 07:14:17;;;;;;;10.40;8.20;;;;;;;16.29;67.53;96171.51;109877;1244;69294;-72
2023/04/25 07:16:46;;;;;;;8.80;7.90;;;;;;;16.10;65.72;96168.76;109843;1245;69328;-74
2023/04/25 07:19:15;;;;;;;8.70;7.80;;;;;;;16.15;66.44;96167.98;109854;1244;58940;-74
2023/04/25 07:21:45;;;;;;;9.20;7.40;;;;;;;16.08;66.17;96167.90;109860;1244;58860;-72
2023/04/25 07:24:14;;;;;;;8.40;7.40;;;;;;;16.10;66.25;96165.98;109960;1244;71212;-72
2023/04/25 07:26:46;;;;;;;8.50;7.60;;;;;;;16.13;64.36;96163.89;109840;1245;69827;-73
2023/04/25 07:29:26;;;;;;;7.80;7.00;;;;;;;16.08;64.77;96163.47;109805;1244;69445;-73
2023/04/25 07:31:55;;;;;;;7.50;6.70;;;;;;;16.03;64.92;96160.30;109762;1245;58860;-73
2023/04/25 07:34:25;;;;;;;7.80;7.10;;;;;;;16.02;64.15;96158.10;109820;1245;58909;-73
2023/04/25 07:36:54;;;;;;;8.00;7.20;;;;;;;16.00;63.25;96156.20;110167;1241;69803;-73
2023/04/25 07:39:25;;;;;;;8.20;7.40;;;;;;;15.90;62.52;96157.85;110109;1243;69553;-72
2023/04/25 07:41:58;;;;;;;8.40;7.60;;;;;;;15.88;63.14;96152.81;109966;1244;68510;-73
2023/04/25 07:44:38;;;;;;;10.10;7.70;;;;;;;15.91;63.29;96151.52;109830;1241;58975;-72
2023/04/25 07:47:08;;;;;;;8.00;7.30;;;;;;;15.86;62.81;96147.34;109873;1245;59323;-73
2023/04/25 07:49:37;;;;;;;8.90;8.00;;;;;;;15.96;62.86;96148.74;110083;1243;70216;-73
2023/04/25 07:52:07;;;;;;;7.80;7.10;;;;;;;16.01;63.22;96145.06;110228;1244;69789;-73
2023/04/25 07:54:36;;;;;;;7.90;7.10;;;;;;;16.14;62.65;96146.88;110049;1244;70097;-73
2023/04/25 07:57:13;;;;;;;8.50;7.30;;;;;;;16.25;62.50;96147.11;110228;1241;58874;-72
2023/04/25 07:59:45;;;;;;;8.40;7.50;;;;;;;16.31;61.21;96146.97;110110;1244;58824;-72
2023/04/25 08:02:14;;;;;;;11.30;7.60;;;;;;;16.47;60.96;96141.94;110133;1245;70018;-73
2023/04/25 08:04:44;;;;;;;8.80;7.90;;;;;;;16.74;61.03;96144.60;110051;1244;70229;-72
2023/04/25 08:07:18;;;;;;;8.20;7.40;;;;;;;17.11;60.82;96140.11;110281;1243;69929;-74
2023/04/25 08:09:52;;;;;;;7.90;7.20;;;;;;;17.33;59.44;96138.31;110695;1244;58867;-73
2023/04/25 08:12:27;;;;;;;8.40;7.20;;;;;;;17.58;58.47;96135.80;110386;1242;58891;-73
2023/04/25 08:14:56;;;;;;;8.90;8.00;;;;;;;17.84;56.91;96137.52;110286;1245;71067;-73
2023/04/25 08:17:28;;;;;;;8.10;7.20;;;;;;;18.27;57.43;96139.75;110169;1244;69449;-72
2023/04/25 08:19:58;;;;;;;7.70;6.90;;;;;;;18.72;55.44;96137.17;110221;1244;69377;-72
2023/04/25 08:22:30;;;;;;;7.20;6.50;;;;;;;19.07;54.06;96134.55;109891;1245;58953;-73
2023/04/25 08:25:23;;;;;;;7.20;6.50;;;;;;;19.44;48.88;96130.69;109958;1244;58886;-72
2023/04/25 08:27:52;;;;;;;;;;;;;;;19.32;47.79;96129.49;110169;1245;69998;-72
2023/04/25 08:30:21;;;;;;;;;;;;;;;19.90;49.97;96129.26;110056;1244;70056;-74
2023/04/25 08:32:51;;;;;;;7.10;5.60;;;;;;;20.35;49.35;96131.70;110085;1244;69245;-72
2023/04/25 08:35:41;;;;;;;7.00;6.10;;;;;;;20.67;47.43;96132.13;109916;1244;58930;-72
2023/04/25 08:38:10;;;;;;;7.00;6.40;;;;;;;20.69;46.76;96133.31;109887;1244;58866;-72
2023/04/25 08:40:41;;;;;;;6.50;5.80;;;;;;;19.95;46.74;96129.35;109843;1244;71196;-73
2023/04/25 08:43:19;;;;;;;5.80;5.20;;;;;;;20.65;47.58;96129.39;109768;1245;69159;-72
2023/04/25 08:45:49;;;;;;;5.50;5.00;;;;;;;21.29;46.04;96124.08;109875;1245;70185;-72
2023/04/25 08:48:28;;;;;;;5.60;5.00;;;;;;;21.43;43.19;96123.42;109895;1244;58956;-73
2023/04/25 08:50:58;;;;;;;6.20;5.10;;;;;;;21.05;42.55;96126.14;110020;1248;58842;-73
2023/04/25 08:53:32;;;;;;;5.70;5.20;;;;;;;21.01;42.84;96120.98;109977;1245;70889;-71
2023/04/25 08:56:09;;;;;;;5.70;5.20;;;;;;;20.82;43.84;96121.77;109873;1244;70771;-71
2023/04/25 08:58:39;;;;;;;6.00;5.40;;;;;;;20.86;44.60;96119.97;109818;1243;69381;-73
2023/04/25 09:01:09;;;;;;;5.60;5.10;;;;;;;21.11;45.28;96109.11;110075;1244;58941;-72
2023/04/25 09:03:47;;;;;;;7.30;5.40;;;;;;;21.37;44.64;96109.38;109916;1245;58824;-72
2023/04/25 09:06:17;;;;;;;5.60;4.80;;;;;;;20.80;43.51;96105.90;109882;1244;70581;-72
2023/04/25 09:08:50;;;;;;;5.60;5.20;;;;;;;21.29;44.02;96108.50;109753;1244;69854;-72
2023/04/25 09:11:19;;;;;;;6.00;5.40;;;;;;;21.22;44.50;96107.83;109924;1244;69748;-72
2023/04/25 09:14:14;;;;;;;5.40;4.90;;;;;;;20.97;44.50;96104.21;109751;1245;58942;-72
2023/04/25 09:17:07;;;;;;;5.60;5.00;;;;;;;20.97;42.86;96102.26;109754;1244;58789;-72
2023/04/25 09:19:45;;;;;;;5.30;4.80;;;;;;;20.99;41.36;96101.55;109885;1244;70569;-73
2023/04/25 09:22:33;;;;;;;5.30;4.80;;;;;;;20.97;42.56;96095.02;109796;1243;69468;-73
2023/04/25 09:25:14;;;;;;;6.20;5.60;;;;;;;20.97;42.56;96094.20;109926;1244;68492;-71
2023/04/25 09:27:55;;;;;;;6.00;4.80;;;;;;;20.52;42.67;96087.93;109834;1246;58914;-74
2023/04/25 09:30:30;;;;;;;5.50;4.70;;;;;;;21.05;44.04;96089.61;109839;1244;58870;-74
2023/04/25 09:33:12;;;;;;;5.50;4.90;;;;;;;21.61;42.61;96082.04;109817;1244;71236;-71
2023/04/25 09:35:45;;;;;;;6.50;5.50;;;;;;;21.89;43.09;96084.61;109795;1243;69383;-72
2023/04/25 09:38:21;;;;;;;5.50;4.90;;;;;;;22.73;40.77;96079.00;109861;1244;69736;-73
2023/04/25 09:41:00;;;;;;;5.00;4.40;;;;;;;23.05;38.92;96080.84;109742;1244;58960;-72
2023/04/25 09:43:46;;;;;;;5.30;4.20;;;;;;;23.17;37.46;96077.26;109813;1244;58878;-71
2023/04/25 09:46:17;;;;;;;5.40;4.90;;;;;;;23.21;37.66;96072.70;109797;1245;71115;-71
2023/04/25 09:48:51;;;;;;;6.40;5.40;;;;;;;23.80;37.96;96068.88;109776;1244;67736;-72
2023/04/25 09:51:26;;;;;;;5.70;5.10;;;;;;;23.58;37.68;96068.55;110250;1244;68315;-72
2023/04/25 09:53:57;;;;;;;5.30;4.80;;;;;;;23.03;37.65;96068.13;110069;1244;58951;-72
2023/04/25 09:56:37;;;;;;;5.00;4.60;;;;;;;22.59;39.86;96067.75;110102;1244;58887;-72
2023/04/25 09:59:09;;;;;;;5.80;5.30;;;;;;;22.22;41.41;96063.48;110199;1244;69605;-72
2023/04/25 10:01:41;;;;;;;5.80;5.20;;;;;;;21.94;41.52;96059.57;109821;1242;69289;-72
2023/04/25 10:04:20;;;;;;;6.80;5.50;;;;;;;21.85;41.45;96051.74;110059;1244;69254;-72
2023/04/25 10:06:57;;;;;;;5.70;5.10;;;;;;;21.69;41.20;96051.14;110206;1244;58864;-72
2023/04/25 10:09:31;;;;;;;4.80;4.40;;;;;;;21.93;41.35;96045.13;110260;1244;58941;-73
2023/04/25 10:12:01;;;;;;;6.20;5.60;;;;;;;22.57;38.47;96041.80;110268;1244;70404;-72
2023/04/25 10:14:31;;;;;;;5.40;4.70;;;;;;;23.62;38.36;96036.47;110168;1244;69293;-73
2023/04/25 10:17:01;;;;;;;5.40;4.90;;;;;;;24.52;38.12;96034.56;110060;1243;69298;-74
2023/04/25 10:19:31;;;;;;;5.20;4.80;;;;;;;25.36;36.55;96024.07;110196;1244;59189;-75
2023/04/25 10:22:13;;;;;;;5.10;4.60;;;;;;;25.40;34.36;96018.84;110232;1243;58893;-74
2023/04/25 10:24:43;;;;;;;5.40;4.80;;;;;;;25.18;35.01;96020.52;110851;1241;70515;-74
2023/04/25 10:27:13;;;;;;;6.30;4.60;;;;;;;25.34;34.05;96017.10;111690;1241;68487;-74
2023/04/25 10:29:44;;;;;;;;;;;;;;;24.53;34.20;96013.59;110525;1244;68735;-74
2023/04/25 10:32:13;;;;;;;6.40;4.50;;;;;;;23.77;35.25;96010.86;110224;1242;58925;-74
2023/04/25 10:34:46;;;;;;;6.40;5.10;;;;;;;23.80;35.94;96004.73;110340;1242;58874;-74
2023/04/25 10:37:15;;;;;;;5.30;4.00;;;;;;;23.95;35.56;95998.51;110376;1241;69779;-74
2023/04/25 10:39:44;;;;;;;4.80;3.90;;;;;;;24.16;35.96;95992.61;110270;1244;69825;-73
2023/04/25 10:42:13;;;;;;;4.00;3.60;;;;;;;24.08;35.23;95991.23;110177;1242;69112;-75
2023/04/25 10:45:02;;;;;;;5.20;4.10;;;;;;;23.48;36.12;95988.77;110356;1241;58887;-77
2023/04/25 10:47:36;;;;;;;5.40;4.70;;;;;;;23.35;38.06;95988.52;110245;1242;58885;-74
2023/04/25 10:50:08;;;;;;;4.90;4.40;;;;;;;23.01;37.22;95985.09;110188;1242;69840;-75
2023/04/25 10:52:40;;;;;;;5.40;4.60;;;;;;;23.40;37.12;95983.17;110212;1241;68458;-74
2023/04/25 10:55:08;;;;;;;5.00;4.50;;;;;;;23.69;36.88;95980.58;110394;1242;69166;-75
2023/04/25 10:57:46;;;;;;;5.20;4.70;;;;;;;23.73;37.30;95979.89;110231;1241;58906;-75
2023/04/25 11:00:16;;;;;;;5.20;4.60;;;;;;;23.73;36.09;95976.60;110352;1240;58911;-76
2023/04/25 11:02:53;;;;;;;5.10;4.60;;;;;;;23.59;37.23;95979.58;110344;1242;71211;-75
2023/04/25 11:05:36;;;;;;;4.90;4.40;;;;;;;23.30;37.06;95981.14;110404;1241;69799;-73
2023/04/25 11:08:42;;;;;;;6.10;5.60;;;;;;;22.84;37.37;95975.96;110201;1240;68539;-74
2023/04/25 11:11:12;;;;;;;5.30;4.80;;;;;;;22.39;38.09;95979.35;110348;1241;58925;-74
2023/04/25 11:13:41;;;;;;;5.60;5.00;;;;;;;22.10;38.50;95979.70;110321;1241;58937;-74
2023/04/25 11:16:09;;;;;;;6.20;5.60;;;;;;;22.27;38.42;95977.38;110355;1241;70542;-75
2023/04/25 11:18:42;;;;;;;6.10;5.50;;;;;;;22.35;38.48;95972.52;110323;1242;69096;-74
2023/04/25 11:21:11;;;;;;;6.50;5.40;;;;;;;22.66;38.25;95969.11;110316;1241;70233;-74
2023/04/25 11:23:40;;;;;;;6.00;5.40;;;;;;;22.74;36.89;95968.38;110321;1242;58978;-74
2023/04/25 11:26:10;;;;;;;5.30;4.80;;;;;;;22.73;36.83;95964.93;110304;1242;58821;-73
2023/04/25 11:28:39;;;;;;;5.40;4.80;;;;;;;22.32;37.71;95967.38;110312;1242;71185;-74
2023/04/25 11:31:09;;;;;;;4.80;4.30;;;;;;;22.49;37.91;95962.06;110180;1241;69454;-74
2023/04/25 11:33:40;;;;;;;5.10;4.70;;;;;;;22.70;37.60;95953.08;110321;1241;69882;-75
2023/04/25 11:36:10;;;;;;;5.10;4.60;;;;;;;22.86;37.43;95950.45;110338;1242;58902;-73
2023/04/25 11:38:40;;;;;;;5.50;4.60;;;;;;;22.62;37.50;95950.70;110320;1241;58951;-74
2023/04/25 11:41:09;;;;;;;5.00;4.50;;;;;;;22.51;38.48;95948.58;110310;1242;70609;-74
2023/04/25 11:43:39;;;;;;;4.90;4.10;;;;;;;22.43;38.01;95946.33;110307;1241;69219;-72
2023/04/25 11:46:11;;;;;;;5.70;5.20;;;;;;;22.05;37.89;95943.41;110299;1242;69438;-74
2023/04/25 11:48:41;;;;;;;5.90;5.30;;;;;;;21.17;39.16;95943.42;110303;1241;58902;-73
2023/04/25 11:51:10;;;;;;;6.20;5.60;;;;;;;20.30;40.89;95942.48;110327;1240;58935;-74
2023/04/25 11:53:42;;;;;;;5.90;5.30;;;;;;;20.22;41.09;95942.59;110180;1244;71198;-74